Time;durP1;ratioP1;P1;durP2;ratioP2;P2;SDS_P1;SDS_P2;PMS_P1;PMS_P2;Temp;Humidity;BMP_temperature;BMP_pressure;BME280_temperature;BME280_humidity;BME280_pressure;Samples;Min_cycle;Max_cycle;Signal;HPM_P1;HPM_P2
2021/05/07 00:01:47;;;;;;;17.92;2.67;;;37.30;16.60;;;;;;5095504;28;20562;-60
2021/05/07 00:04:17;;;;;;;24.20;2.03;;;37.30;16.50;;;;;;5093668;28;20545;-58
2021/05/07 00:06:44;;;;;;;21.42;2.05;;;37.20;16.60;;;;;;5096406;28;20080;-59
2021/05/07 00:09:10;;;;;;;16.70;2.22;;;37.20;16.70;;;;;;5095584;28;20076;-59
2021/05/07 00:11:37;;;;;;;14.88;2.38;;;37.20;16.90;;;;;;5092298;28;20785;-60
2021/05/07 00:14:04;;;;;;;18.65;2.60;;;37.30;17.20;;;;;;5094419;28;20084;-61
2021/05/07 00:16:31;;;;;;;21.52;2.55;;;37.20;16.80;;;;;;5098335;28;20539;-62
2021/05/07 00:18:57;;;;;;;18.90;2.70;;;37.00;16.90;;;;;;5097640;28;20133;-61
2021/05/07 00:21:24;;;;;;;19.95;2.67;;;36.90;16.80;;;;;;5091229;28;20148;-58
2021/05/07 00:23:52;;;;;;;21.23;2.60;;;36.80;16.70;;;;;;5094246;28;20092;-58
2021/05/07 00:26:19;;;;;;;16.27;2.17;;;36.90;16.40;;;;;;5090926;28;20065;-62
2021/05/07 00:28:45;;;;;;;12.65;2.65;;;36.80;16.50;;;;;;5075053;28;20125;-63
2021/05/07 00:31:12;;;;;;;9.98;2.30;;;36.70;16.50;;;;;;5099558;28;20115;-62
2021/05/07 00:33:38;;;;;;;13.27;2.17;;;36.80;16.50;;;;;;5093982;28;20456;-63
2021/05/07 00:36:05;;;;;;;16.63;2.10;;;36.70;16.50;;;;;;5096157;28;20421;-62
2021/05/07 00:38:31;;;;;;;21.70;2.53;;;36.60;16.30;;;;;;5098000;28;20081;-62
2021/05/07 00:40:58;;;;;;;20.65;3.00;;;36.50;16.10;;;;;;5092620;28;20072;-62
2021/05/07 00:43:25;;;;;;;12.98;2.75;;;36.30;16.20;;;;;;5080545;28;20076;-62
2021/05/07 00:45:52;;;;;;;16.33;2.70;;;36.30;16.50;;;;;;5096694;28;20073;-63
2021/05/07 00:48:18;;;;;;;17.70;2.40;;;36.30;15.90;;;;;;5094400;28;20113;-63
2021/05/07 00:50:47;;;;;;;14.27;2.40;;;36.30;15.40;;;;;;5096240;28;20077;-62
2021/05/07 00:53:16;;;;;;;20.75;2.58;;;36.20;14.90;;;;;;5077484;28;20470;-61
2021/05/07 00:55:42;;;;;;;15.45;2.40;;;36.10;15.30;;;;;;5076203;28;20077;-60
2021/05/07 00:58:09;;;;;;;8.43;2.00;;;36.00;14.90;;;;;;5080895;28;20433;-62
2021/05/07 01:00:36;;;;;;;13.38;2.15;;;35.90;14.30;;;;;;5097296;28;20072;-62
2021/05/07 01:03:03;;;;;;;13.40;2.42;;;35.90;14.40;;;;;;5078523;28;20369;-62
2021/05/07 01:05:30;;;;;;;14.45;2.33;;;35.70;14.70;;;;;;5096598;28;20421;-63
2021/05/07 01:07:58;;;;;;;16.75;2.28;;;35.60;15.00;;;;;;5085484;28;20066;-62
2021/05/07 01:10:25;;;;;;;20.48;3.35;;;35.60;15.40;;;;;;5092494;28;20102;-63
2021/05/07 01:12:52;;;;;;;17.52;2.55;;;35.40;15.10;;;;;;5100518;28;20406;-63
2021/05/07 01:15:23;;;;;;;19.17;3.28;;;35.20;15.80;;;;;;5100875;28;20156;-62
2021/05/07 01:17:55;;;;;;;27.27;3.70;;;35.20;15.80;;;;;;5098682;28;20533;-62
2021/05/07 01:20:24;;;;;;;18.35;3.70;;;35.10;16.40;;;;;;5097319;28;20107;-62
2021/05/07 01:22:53;;;;;;;16.60;2.50;;;34.90;16.60;;;;;;5099455;28;20532;-60
2021/05/07 01:25:22;;;;;;;12.90;2.33;;;34.80;16.70;;;;;;5080991;28;20167;-60
2021/05/07 01:27:50;;;;;;;19.60;2.70;;;34.70;17.40;;;;;;5080342;28;20080;-62
2021/05/07 01:30:19;;;;;;;16.92;2.30;;;34.60;17.40;;;;;;5103381;28;20532;-61
2021/05/07 01:32:47;;;;;;;29.88;3.13;;;34.60;17.40;;;;;;5099509;28;20080;-60
2021/05/07 01:35:20;;;;;;;20.08;3.10;;;34.60;17.50;;;;;;5100636;28;20155;-62
2021/05/07 01:37:51;;;;;;;15.38;2.60;;;34.60;17.80;;;;;;5101634;28;20068;-61
2021/05/07 01:40:29;;;;;;;23.25;3.13;;;34.80;17.80;;;;;;5085326;28;20096;-61
2021/05/07 01:42:56;;;;;;;20.35;2.50;;;34.60;18.30;;;;;;5081325;28;20076;-62
2021/05/07 01:45:25;;;;;;;17.88;2.33;;;34.30;18.80;;;;;;5098366;28;20076;-62
2021/05/07 01:47:52;;;;;;;16.63;3.10;;;34.00;19.00;;;;;;5102780;28;20105;-62
2021/05/07 01:50:22;;;;;;;25.45;3.50;;;33.80;19.20;;;;;;5085818;28;20073;-62
2021/05/07 01:52:48;;;;;;;30.50;3.22;;;33.80;19.40;;;;;;5100342;28;20543;-63
2021/05/07 01:55:19;;;;;;;30.58;3.50;;;33.70;19.70;;;;;;5101110;28;20073;-62
2021/05/07 01:57:46;;;;;;;26.00;3.42;;;33.50;19.90;;;;;;5098347;28;20097;-61
2021/05/07 02:00:21;;;;;;;31.90;3.10;;;33.20;20.30;;;;;;5097595;28;20102;-61
2021/05/07 02:02:48;;;;;;;20.27;3.10;;;32.90;20.40;;;;;;5098990;28;20114;-59
2021/05/07 02:05:16;;;;;;;23.02;3.78;;;32.70;20.60;;;;;;5101014;28;20151;-59
2021/05/07 02:07:46;;;;;;;22.88;4.18;;;32.60;20.70;;;;;;5099111;28;20079;-58
2021/05/07 02:10:15;;;;;;;18.45;2.95;;;32.50;21.00;;;;;;5102494;28;20471;-52
2021/05/07 02:16:30;;;;;;;24.35;2.92;;;32.10;22.10;;;;;;5115497;28;20163;-58
2021/05/07 02:18:56;;;;;;;32.35;3.92;;;32.10;22.50;;;;;;5114725;28;20569;-54
2021/05/07 02:21:23;;;;;;;26.17;4.13;;;31.90;22.80;;;;;;5114593;28;20072;-57
2021/05/07 02:23:49;;;;;;;32.13;3.40;;;31.80;23.10;;;;;;5114818;28;20102;-58
2021/05/07 02:26:16;;;;;;;35.05;4.03;;;31.70;23.30;;;;;;5114880;28;20106;-59
2021/05/07 02:28:42;;;;;;;22.27;3.38;;;31.60;23.60;;;;;;5115144;28;20072;-56
2021/05/07 02:31:09;;;;;;;27.38;3.60;;;31.50;23.70;;;;;;5114800;28;20189;-55
2021/05/07 02:33:38;;;;;;;28.30;2.75;;;31.30;23.80;;;;;;5114868;28;20071;-58
2021/05/07 02:36:06;;;;;;;21.88;3.65;;;31.20;23.70;;;;;;5096465;28;20159;-58
2021/05/07 02:38:34;;;;;;;19.17;2.70;;;31.10;23.70;;;;;;5095949;28;20182;-57
2021/05/07 02:41:01;;;;;;;28.73;3.80;;;31.00;24.00;;;;;;5114592;28;20182;-59
2021/05/07 02:43:29;;;;;;;28.27;3.92;;;30.90;24.20;;;;;;5114046;28;20521;-59
2021/05/07 02:45:56;;;;;;;23.80;3.28;;;30.80;24.40;;;;;;5114661;28;20125;-60
2021/05/07 02:48:23;;;;;;;24.23;4.15;;;30.70;24.60;;;;;;5114400;28;20153;-60
2021/05/07 02:50:49;;;;;;;18.48;3.38;;;30.60;24.80;;;;;;5114392;28;20147;-58
2021/05/07 02:53:16;;;;;;;25.23;3.85;;;30.50;24.80;;;;;;5114409;28;20068;-61
2021/05/07 02:55:42;;;;;;;27.17;3.90;;;30.50;25.00;;;;;;5114435;28;20068;-60
2021/05/07 02:58:09;;;;;;;31.73;4.22;;;30.40;25.40;;;;;;5114370;28;20103;-56
2021/05/07 03:00:35;;;;;;;40.78;4.45;;;30.20;25.70;;;;;;5114378;28;20076;-60
2021/05/07 03:03:02;;;;;;;24.63;3.28;;;30.20;26.00;;;;;;5114879;28;20083;-58
2021/05/07 03:05:28;;;;;;;28.25;4.05;;;30.10;26.10;;;;;;5114079;28;20487;-59
2021/05/07 03:07:55;;;;;;;31.52;4.72;;;30.10;26.20;;;;;;5114394;28;20087;-59
2021/05/07 03:10:21;;;;;;;30.05;4.13;;;30.00;26.40;;;;;;5114250;28;20068;-57
2021/05/07 03:12:48;;;;;;;48.30;4.38;;;29.90;26.60;;;;;;5114037;28;20065;-59
2021/05/07 03:15:16;;;;;;;44.55;5.22;;;29.80;26.80;;;;;;5095864;28;20182;-60
2021/05/07 03:17:43;;;;;;;38.35;3.95;;;29.70;27.00;;;;;;5113944;28;20555;-59
2021/05/07 03:20:10;;;;;;;43.38;4.25;;;29.60;27.30;;;;;;5113924;28;20565;-59
2021/05/07 03:22:36;;;;;;;42.38;4.43;;;29.60;27.50;;;;;;5114218;28;20073;-58
2021/05/07 03:25:03;;;;;;;31.63;4.22;;;29.50;27.70;;;;;;5113970;28;20087;-59
2021/05/07 03:27:30;;;;;;;38.92;4.00;;;29.50;27.90;;;;;;5113806;28;20129;-56
2021/05/07 03:29:56;;;;;;;28.48;4.03;;;29.40;27.90;;;;;;5113569;28;20082;-59
2021/05/07 03:32:23;;;;;;;48.17;5.45;;;29.30;28.00;;;;;;5113318;28;20068;-60
2021/05/07 03:34:49;;;;;;;36.65;4.35;;;29.20;28.10;;;;;;5113516;28;20556;-59
2021/05/07 03:37:17;;;;;;;39.60;4.07;;;29.10;28.40;;;;;;5095279;28;20083;-58
2021/05/07 03:39:45;;;;;;;39.30;4.88;;;29.00;28.60;;;;;;5113448;28;20100;-60
2021/05/07 03:42:11;;;;;;;47.83;4.75;;;29.00;28.80;;;;;;5113427;28;20155;-58
2021/05/07 03:44:38;;;;;;;35.00;5.10;;;28.90;29.00;;;;;;5113450;28;20076;-60
2021/05/07 03:47:04;;;;;;;32.72;5.18;;;28.80;29.40;;;;;;5113555;28;20098;-58
2021/05/07 03:49:31;;;;;;;40.42;5.53;;;28.80;29.70;;;;;;5113741;28;20064;-59
2021/05/07 03:51:58;;;;;;;39.25;6.07;;;28.70;29.80;;;;;;5113427;28;20525;-60
2021/05/07 03:54:24;;;;;;;46.35;7.80;;;28.70;30.00;;;;;;5113328;28;20087;-59
2021/05/07 03:56:51;;;;;;;46.97;7.68;;;28.60;30.40;;;;;;5113563;28;20072;-59
2021/05/07 03:59:17;;;;;;;37.95;7.45;;;28.50;30.60;;;;;;5094544;28;20157;-60
2021/05/07 04:01:44;;;;;;;44.40;7.80;;;28.40;30.70;;;;;;5113348;28;20072;-59
2021/05/07 04:04:11;;;;;;;38.72;7.43;;;28.40;30.80;;;;;;5113275;28;20075;-59
2021/05/07 04:06:38;;;;;;;41.70;9.38;;;28.30;31.00;;;;;;5113269;28;20068;-59
2021/05/07 04:09:09;;;;;;;38.97;6.63;;;28.30;31.30;;;;;;5113192;28;20071;-59
2021/05/07 04:14:05;;;;;;;43.72;4.65;;;28.20;31.50;;;;;;5113225;28;20537;-61
2021/05/07 04:16:32;;;;;;;38.83;4.43;;;28.20;31.50;;;;;;5113070;28;20507;-59
2021/05/07 04:18:58;;;;;;;28.83;4.85;;;28.10;31.60;;;;;;5095126;28;20102;-58
2021/05/07 04:21:25;;;;;;;17.40;3.78;;;28.10;31.70;;;;;;5113295;28;20421;-59
2021/05/07 04:23:51;;;;;;;22.38;3.88;;;28.10;31.70;;;;;;5113276;28;20075;-58
2021/05/07 04:26:19;;;;;;;29.27;3.60;;;28.00;31.90;;;;;;5113700;28;20064;-58
2021/05/07 04:28:46;;;;;;;23.35;3.72;;;28.00;32.30;;;;;;5113396;28;20598;-59
2021/05/07 04:31:12;;;;;;;19.58;4.47;;;27.90;32.40;;;;;;5113029;28;20126;-59
2021/05/07 04:33:39;;;;;;;17.98;3.80;;;27.90;32.50;;;;;;5113112;28;20069;-60
2021/05/07 04:36:06;;;;;;;22.35;4.13;;;27.90;32.60;;;;;;5113222;28;20064;-60
2021/05/07 04:38:33;;;;;;;22.30;4.72;;;27.80;32.70;;;;;;5113033;28;20605;-60
2021/05/07 04:40:59;;;;;;;20.33;4.25;;;27.80;32.90;;;;;;5113214;28;20072;-61
2021/05/07 04:43:26;;;;;;;20.65;4.13;;;27.70;33.10;;;;;;5113609;28;20153;-58
2021/05/07 04:45:53;;;;;;;17.23;3.80;;;27.60;33.30;;;;;;5117216;28;20555;-59
2021/05/07 04:48:20;;;;;;;21.48;4.70;;;27.50;33.50;;;;;;5116678;28;20120;-60
2021/05/07 04:50:46;;;;;;;25.00;4.35;;;27.50;34.00;;;;;;5098938;28;20071;-59
2021/05/07 04:56:35;;;;;;;21.40;4.50;;;27.40;34.80;;;;;;5117245;28;20541;-59
2021/05/07 04:59:01;;;;;;;22.15;4.70;;;27.40;35.40;;;;;;5116681;28;20565;-58
2021/05/07 05:01:28;;;;;;;20.05;4.05;;;27.30;35.80;;;;;;5116570;28;20068;-61
2021/05/07 05:03:54;;;;;;;25.35;4.45;;;27.20;36.10;;;;;;5098516;28;20076;-59
2021/05/07 05:06:24;;;;;;;21.25;4.70;;;27.10;36.60;;;;;;5116849;28;20109;-62
2021/05/07 05:08:50;;;;;;;23.20;4.57;;;27.10;37.10;;;;;;5116769;28;20069;-58
2021/05/07 05:11:17;;;;;;;26.35;4.50;;;27.10;37.40;;;;;;5116560;28;20064;-58
2021/05/07 05:13:43;;;;;;;17.98;4.25;;;26.90;38.00;;;;;;5116399;28;20076;-55
2021/05/07 05:16:10;;;;;;;26.58;4.47;;;26.90;38.50;;;;;;5116312;28;20068;-57
2021/05/07 05:18:38;;;;;;;24.75;4.40;;;26.80;39.30;;;;;;5116371;28;20538;-58
2021/05/07 05:21:09;;;;;;;17.80;4.78;;;26.90;39.00;;;;;;5116610;28;20072;-58
2021/05/07 05:23:40;;;;;;;22.02;4.93;;;26.80;39.30;;;;;;5116350;28;20223;-57
2021/05/07 05:26:08;;;;;;;20.75;5.03;;;26.70;39.60;;;;;;5098213;28;20076;-60
2021/05/07 05:28:36;;;;;;;16.75;4.38;;;26.60;39.80;;;;;;5116288;28;20068;-57
2021/05/07 05:31:03;;;;;;;27.60;4.68;;;26.60;40.30;;;;;;5116296;28;20069;-59
2021/05/07 05:33:30;;;;;;;15.38;3.80;;;26.60;40.40;;;;;;5117202;28;20552;-60
2021/05/07 05:35:57;;;;;;;18.73;3.88;;;26.60;40.40;;;;;;5099629;28;20079;-59
2021/05/07 05:38:23;;;;;;;26.52;3.38;;;26.40;40.80;;;;;;5116686;28;20079;-59
2021/05/07 05:40:50;;;;;;;23.67;4.60;;;26.30;41.40;;;;;;5098335;28;20533;-58
2021/05/07 05:43:17;;;;;;;22.92;4.82;;;26.40;41.60;;;;;;5098083;28;20530;-62
2021/05/07 05:45:43;;;;;;;15.07;3.85;;;26.40;41.70;;;;;;5098371;28;20080;-57
2021/05/07 05:48:13;;;;;;;22.20;4.18;;;26.30;41.80;;;;;;5115848;28;20187;-60
2021/05/07 05:50:48;;;;;;;25.08;5.13;;;26.30;42.00;;;;;;5116216;28;20060;-58
2021/05/07 05:53:15;;;;;;;22.52;5.05;;;26.20;42.20;;;;;;5116045;28;20083;-59
2021/05/07 05:55:42;;;;;;;17.20;4.45;;;26.10;42.40;;;;;;5115219;28;20064;-58
2021/05/07 05:58:09;;;;;;;24.70;4.97;;;26.00;42.80;;;;;;5116092;28;20088;-59
2021/05/07 06:00:36;;;;;;;21.42;4.53;;;26.00;43.00;;;;;;5115707;28;20584;-59
2021/05/07 06:03:03;;;;;;;26.17;5.35;;;26.00;43.10;;;;;;5115815;28;20101;-57
2021/05/07 06:08:52;;;;;;;22.90;4.88;;;25.90;43.30;;;;;;5116537;28;20137;-59
2021/05/07 06:11:18;;;;;;;28.45;6.03;;;25.80;43.30;;;;;;5115539;28;20075;-56
2021/05/07 06:13:45;;;;;;;25.80;6.35;;;25.90;43.50;;;;;;5115617;28;20068;-59
2021/05/07 06:16:11;;;;;;;28.50;5.60;;;25.80;43.70;;;;;;5115393;28;20064;-58
2021/05/07 06:18:38;;;;;;;24.90;4.88;;;25.70;43.90;;;;;;5115244;28;20188;-57
2021/05/07 06:21:07;;;;;;;21.60;4.68;;;25.70;44.40;;;;;;5097261;28;20076;-57
2021/05/07 06:23:33;;;;;;;17.98;4.07;;;25.60;44.60;;;;;;5114850;28;20501;-54
2021/05/07 06:26:02;;;;;;;18.73;4.03;;;25.60;44.70;;;;;;5114980;28;20080;-57
2021/05/07 06:28:29;;;;;;;18.08;3.75;;;25.50;45.00;;;;;;5115064;28;20064;-59
2021/05/07 06:34:17;;;;;;;16.92;3.92;;;25.30;45.60;;;;;;5115221;28;20107;-59
2021/05/07 06:36:44;;;;;;;24.92;4.03;;;25.20;46.20;;;;;;5114886;28;20125;-57
2021/05/07 06:39:10;;;;;;;33.53;4.65;;;25.20;46.40;;;;;;5114668;28;20449;-56
2021/05/07 06:41:37;;;;;;;38.70;4.97;;;25.20;46.80;;;;;;5114857;28;20151;-56
2021/05/07 06:44:05;;;;;;;29.27;4.13;;;25.20;47.20;;;;;;5114498;28;20132;-58
2021/05/07 06:46:31;;;;;;;25.33;4.65;;;25.10;47.50;;;;;;5114593;28;20072;-56
2021/05/07 06:48:58;;;;;;;36.97;5.05;;;25.10;48.00;;;;;;5114429;28;20128;-57
2021/05/07 06:51:26;;;;;;;27.58;4.55;;;25.10;48.30;;;;;;5114713;28;20205;-54
2021/05/07 06:53:53;;;;;;;38.88;5.60;;;25.10;48.30;;;;;;5114753;28;20541;-56
2021/05/07 06:56:21;;;;;;;26.77;4.30;;;25.10;48.50;;;;;;5114830;28;20412;-58
2021/05/07 06:58:50;;;;;;;34.65;4.65;;;25.10;48.50;;;;;;5114361;28;20095;-56
2021/05/07 07:04:38;;;;;;;19.67;4.72;;;25.00;49.20;;;;;;5114586;28;20171;-60
2021/05/07 07:07:05;;;;;;;19.15;4.53;;;25.00;49.70;;;;;;5113686;28;20151;-59
2021/05/07 07:09:31;;;;;;;21.92;4.05;;;25.00;50.10;;;;;;5113711;28;20072;-54
2021/05/07 07:11:58;;;;;;;22.40;4.68;;;24.90;50.60;;;;;;5114272;28;20156;-60
2021/05/07 07:14:24;;;;;;;25.77;4.97;;;24.80;51.10;;;;;;5114209;28;20462;-59
2021/05/07 07:16:51;;;;;;;27.85;4.65;;;24.80;51.40;;;;;;5113850;28;20064;-56
2021/05/07 07:19:17;;;;;;;18.02;5.07;;;24.80;51.50;;;;;;5113770;28;20142;-57
2021/05/07 07:21:43;;;;;;;22.00;4.32;;;24.70;51.90;;;;;;5114020;28;20064;-59
2021/05/07 07:24:10;;;;;;;31.02;5.07;;;24.70;52.20;;;;;;5114081;28;20068;-58
2021/05/07 07:26:37;;;;;;;20.52;4.65;;;24.60;52.40;;;;;;5114003;28;20487;-60
2021/05/07 07:29:04;;;;;;;21.13;5.20;;;24.50;52.70;;;;;;5114074;28;20152;-60
2021/05/07 07:31:31;;;;;;;21.85;5.28;;;24.60;52.90;;;;;;5079198;28;20072;-58
2021/05/07 07:33:59;;;;;;;19.35;4.68;;;24.60;53.10;;;;;;5096035;28;20102;-58
2021/05/07 07:36:25;;;;;;;25.10;5.07;;;24.60;53.20;;;;;;5113924;28;20509;-58
2021/05/07 07:38:52;;;;;;;20.42;5.10;;;24.60;53.20;;;;;;5113744;28;20104;-59
2021/05/07 07:41:18;;;;;;;31.38;5.45;;;24.60;53.40;;;;;;5113699;28;20075;-60
2021/05/07 07:43:45;;;;;;;19.85;4.70;;;24.70;53.40;;;;;;5114120;28;20521;-58
2021/05/07 07:46:11;;;;;;;20.73;5.40;;;24.70;53.30;;;;;;5114032;28;20075;-60
2021/05/07 07:48:38;;;;;;;21.15;5.45;;;24.60;53.40;;;;;;5114029;28;20526;-60
2021/05/07 07:51:05;;;;;;;24.17;6.00;;;24.60;53.50;;;;;;5095806;28;20092;-56
2021/05/07 07:53:31;;;;;;;25.92;5.80;;;24.50;53.70;;;;;;5113463;28;20136;-59
2021/05/07 07:55:58;;;;;;;17.38;5.65;;;24.50;53.90;;;;;;5113460;28;20111;-57
2021/05/07 07:58:25;;;;;;;24.95;5.45;;;24.40;54.10;;;;;;5113409;28;20068;-58
2021/05/07 08:00:54;;;;;;;23.83;6.07;;;24.40;54.30;;;;;;5113477;28;20083;-57
2021/05/07 08:03:21;;;;;;;24.85;5.13;;;24.30;54.40;;;;;;5113461;28;20478;-59
2021/05/07 08:05:48;;;;;;;29.83;5.95;;;24.30;54.40;;;;;;5113489;28;20592;-60
2021/05/07 08:08:15;;;;;;;26.55;5.35;;;24.30;54.60;;;;;;5113392;28;20068;-56
2021/05/07 08:10:41;;;;;;;21.35;5.72;;;24.30;54.80;;;;;;5113238;28;20072;-59
2021/05/07 08:13:08;;;;;;;22.50;5.55;;;24.30;54.80;;;;;;5095333;28;20076;-60
2021/05/07 08:15:34;;;;;;;25.60;5.22;;;24.30;54.90;;;;;;5113166;28;20190;-60
2021/05/07 08:18:01;;;;;;;24.67;6.43;;;24.20;54.90;;;;;;5113101;28;20125;-60
2021/05/07 08:20:28;;;;;;;27.40;5.55;;;24.30;54.80;;;;;;5116246;28;20096;-60
2021/05/07 08:22:56;;;;;;;24.58;5.63;;;24.20;55.10;;;;;;5117601;28;20064;-60
2021/05/07 08:25:23;;;;;;;30.13;6.05;;;24.10;55.40;;;;;;5099203;28;20076;-57
2021/05/07 08:27:49;;;;;;;25.83;6.13;;;24.10;55.60;;;;;;5117412;28;20064;-60
2021/05/07 08:30:16;;;;;;;22.20;5.88;;;24.20;55.50;;;;;;5117442;28;20064;-59
2021/05/07 08:32:42;;;;;;;27.08;5.53;;;24.20;55.40;;;;;;5117333;28;20096;-57
2021/05/07 08:35:11;;;;;;;23.17;5.47;;;24.20;55.40;;;;;;5117191;28;20080;-58
2021/05/07 08:37:44;;;;;;;23.90;5.75;;;24.10;55.80;;;;;;5098728;28;20103;-56
2021/05/07 08:40:13;;;;;;;21.55;5.25;;;24.00;56.20;;;;;;5117225;28;20103;-58
2021/05/07 08:42:40;;;;;;;31.40;6.55;;;24.10;56.20;;;;;;5117118;28;20065;-58
2021/05/07 08:45:09;;;;;;;25.00;5.35;;;23.90;56.50;;;;;;5117021;28;20068;-57
2021/05/07 08:47:35;;;;;;;27.30;6.07;;;24.00;56.90;;;;;;5116802;28;20108;-59
2021/05/07 08:50:04;;;;;;;25.65;5.35;;;24.00;56.80;;;;;;5117062;28;20064;-57
2021/05/07 08:52:31;;;;;;;28.73;6.10;;;23.90;56.90;;;;;;5117362;28;20471;-57
2021/05/07 08:54:58;;;;;;;24.45;5.72;;;23.90;57.50;;;;;;5116967;28;20065;-58
2021/05/07 08:57:25;;;;;;;28.83;6.20;;;23.80;57.80;;;;;;5116804;28;20158;-57
2021/05/07 08:59:52;;;;;;;27.20;5.28;;;23.80;58.00;;;;;;5116743;28;20525;-58
2021/05/07 09:02:32;;;;;;;32.88;6.63;;;23.80;58.10;;;;;;5116772;28;20068;-58
2021/05/07 09:04:59;;;;;;;19.65;5.00;;;23.80;58.10;;;;;;5116945;28;20072;-55
2021/05/07 09:07:30;;;;;;;21.60;5.55;;;23.70;58.50;;;;;;5116513;28;20083;-59
2021/05/07 09:09:59;;;;;;;26.40;6.03;;;23.70;58.80;;;;;;5116801;28;20083;-58
2021/05/07 09:12:31;;;;;;;27.00;5.38;;;23.70;58.80;;;;;;5116716;28;20155;-58
2021/05/07 09:14:58;;;;;;;21.88;4.57;;;23.70;59.10;;;;;;5116789;28;20532;-59
2021/05/07 09:17:27;;;;;;;19.63;4.97;;;23.70;59.30;;;;;;5116601;28;20517;-58
2021/05/07 09:20:23;;;;;;;26.70;4.97;;;23.70;59.20;;;;;;5116785;28;20123;-59
2021/05/07 09:22:49;;;;;;;25.13;5.53;;;23.60;59.20;;;;;;5100840;28;20080;-60
2021/05/07 09:25:17;;;;;;;29.73;5.10;;;23.50;59.90;;;;;;5116796;28;20068;-59
2021/05/07 09:27:45;;;;;;;17.98;4.72;;;23.30;60.80;;;;;;5116175;28;20663;-59
2021/05/07 09:30:23;;;;;;;19.92;4.80;;;23.30;61.20;;;;;;5116077;28;20498;-57
2021/05/07 09:32:52;;;;;;;23.65;4.30;;;23.30;61.60;;;;;;5115813;28;20072;-57
2021/05/07 09:35:19;;;;;;;26.70;4.97;;;23.30;61.70;;;;;;5116124;28;20110;-58
2021/05/07 09:37:47;;;;;;;24.80;4.43;;;23.30;62.00;;;;;;5116081;28;20068;-59
2021/05/07 09:40:18;;;;;;;20.65;4.85;;;23.30;61.80;;;;;;5115897;28;20484;-58
2021/05/07 09:42:45;;;;;;;27.30;5.00;;;23.30;61.40;;;;;;5115956;28;20633;-59
2021/05/07 09:45:27;;;;;;;23.20;4.53;;;23.20;61.90;;;;;;5115795;28;20076;-55
2021/05/07 09:47:54;;;;;;;22.98;4.28;;;23.10;62.60;;;;;;5097444;28;20128;-58
2021/05/07 09:50:36;;;;;;;22.55;5.07;;;23.00;62.80;;;;;;5115859;28;20060;-59
2021/05/07 09:53:19;;;;;;;22.58;4.93;;;23.00;63.20;;;;;;5097640;28;20596;-60
2021/05/07 09:55:50;;;;;;;21.63;4.57;;;23.00;63.40;;;;;;5115868;28;20072;-60
2021/05/07 09:58:17;;;;;;;28.67;4.97;;;22.90;63.50;;;;;;5115677;28;20072;-60
2021/05/07 10:00:44;;;;;;;17.38;5.32;;;22.90;64.10;;;;;;5115731;28;20104;-60
2021/05/07 10:03:11;;;;;;;17.88;4.85;;;22.90;64.20;;;;;;5115693;28;20064;-60
2021/05/07 10:05:38;;;;;;;21.02;4.82;;;22.90;64.40;;;;;;5115702;28;20072;-60
2021/05/07 10:08:05;;;;;;;22.17;4.68;;;22.90;64.30;;;;;;5115394;28;20083;-59
2021/05/07 10:10:38;;;;;;;22.02;5.10;;;22.90;64.20;;;;;;5115441;28;20154;-60
2021/05/07 10:13:07;;;;;;;17.88;4.88;;;22.80;64.50;;;;;;5115528;28;20072;-60
2021/05/07 10:15:37;;;;;;;21.98;5.82;;;22.80;64.50;;;;;;5096967;28;20084;-55
2021/05/07 10:18:08;;;;;;;22.70;5.55;;;22.70;64.90;;;;;;5115095;28;20083;-59
2021/05/07 10:20:37;;;;;;;24.00;5.57;;;22.70;65.50;;;;;;5115036;28;20100;-59
2021/05/07 10:23:18;;;;;;;21.02;5.22;;;22.70;64.70;;;;;;5115116;28;20163;-58
2021/05/07 10:25:55;;;;;;;20.38;5.72;;;22.60;62.40;;;;;;5096878;28;20079;-55
2021/05/07 10:28:22;;;;;;;22.50;5.03;;;22.70;61.50;;;;;;5115022;28;20063;-55
2021/05/07 10:34:26;;;;;;;20.40;4.70;;;22.70;59.10;;;;;;5115423;28;20227;-59
2021/05/07 10:36:54;;;;;;;21.52;5.00;;;22.70;58.50;;;;;;5114889;28;20078;-59
2021/05/07 10:39:22;;;;;;;21.33;5.40;;;22.70;58.40;;;;;;5114708;28;20124;-58
2021/05/07 10:41:50;;;;;;;22.70;6.05;;;22.80;58.20;;;;;;5114588;28;20125;-58
2021/05/07 10:44:21;;;;;;;22.95;5.05;;;22.80;57.80;;;;;;5114733;28;20102;-55
2021/05/07 10:47:09;;;;;;;21.25;5.55;;;22.70;57.50;;;;;;5114761;28;20436;-60
2021/05/07 10:49:42;;;;;;;24.98;5.85;;;22.60;56.80;;;;;;5114675;28;20075;-58
2021/05/07 10:52:10;;;;;;;14.15;4.57;;;22.60;56.40;;;;;;5114587;28;20077;-57
2021/05/07 10:54:43;;;;;;;24.83;5.32;;;22.60;56.30;;;;;;5114413;28;20065;-56
2021/05/07 10:57:39;;;;;;;22.92;5.70;;;22.60;55.80;;;;;;5114685;28;20068;-57
2021/05/07 11:00:08;;;;;;;20.27;5.72;;;22.50;55.50;;;;;;5097353;28;20138;-60
2021/05/07 11:02:43;;;;;;;25.92;7.22;;;22.50;55.60;;;;;;5114175;28;20447;-59
2021/05/07 11:05:11;;;;;;;27.75;8.02;;;22.50;55.90;;;;;;5114471;28;20525;-58
2021/05/07 11:07:38;;;;;;;31.25;8.32;;;22.40;56.20;;;;;;5114353;28;20398;-60
2021/05/07 11:10:12;;;;;;;22.27;7.43;;;22.30;55.70;;;;;;5114277;28;20548;-60
2021/05/07 11:12:43;;;;;;;22.48;6.47;;;22.10;55.00;;;;;;5114245;28;20439;-56
2021/05/07 11:15:17;;;;;;;27.27;6.50;;;22.10;54.70;;;;;;5114151;28;20083;-59
2021/05/07 11:17:43;;;;;;;18.75;5.68;;;22.10;54.60;;;;;;5114050;28;20445;-59
2021/05/07 11:23:32;;;;;;;17.55;5.93;;;22.00;54.10;;;;;;5114335;28;20087;-60
2021/05/07 11:26:05;;;;;;;18.00;5.10;;;22.00;53.50;;;;;;5114010;28;20421;-59
2021/05/07 11:28:41;;;;;;;21.17;6.15;;;22.00;54.00;;;;;;5113992;28;20064;-57
2021/05/07 11:31:07;;;;;;;16.38;4.82;;;22.00;53.90;;;;;;5113810;28;20067;-57
2021/05/07 11:33:34;;;;;;;22.52;5.03;;;21.90;53.50;;;;;;5095726;28;20112;-58
2021/05/07 11:36:09;;;;;;;22.77;4.13;;;21.90;53.40;;;;;;5113814;28;20071;-57
2021/05/07 11:38:38;;;;;;;22.58;4.78;;;21.90;53.20;;;;;;5113599;28;20079;-58
2021/05/07 11:41:15;;;;;;;18.80;4.30;;;21.90;52.70;;;;;;5113755;28;20064;-59
2021/05/07 11:43:41;;;;;;;18.33;4.07;;;21.80;52.00;;;;;;5113821;28;20068;-59
2021/05/07 11:46:09;;;;;;;15.35;4.35;;;21.80;51.80;;;;;;5113389;28;20064;-58
2021/05/07 11:48:36;;;;;;;21.27;4.10;;;21.70;51.80;;;;;;5113344;28;20123;-58
2021/05/07 11:51:09;;;;;;;17.60;4.50;;;21.70;51.80;;;;;;5113476;28;20512;-59
2021/05/07 11:53:36;;;;;;;20.85;4.00;;;21.80;51.80;;;;;;5112903;28;20072;-59
2021/05/07 11:56:05;;;;;;;19.80;4.28;;;21.80;51.20;;;;;;5113367;28;20072;-58
2021/05/07 11:58:36;;;;;;;17.50;4.00;;;21.80;51.30;;;;;;5113478;28;20105;-59
2021/05/07 12:01:06;;;;;;;16.80;4.70;;;21.50;68.90;;;;;;5113517;28;20091;-59
2021/05/07 12:03:43;;;;;;;21.10;4.13;;;21.70;50.60;;;;;;5113956;28;20398;-59
2021/05/07 12:06:15;;;;;;;;;;;21.70;50.10;;;;;;5113721;28;20094;-57
2021/05/07 12:08:42;;;;;;;16.45;4.05;;;21.60;49.90;;;;;;5113380;28;20145;-55
2021/05/07 12:11:10;;;;;;;21.00;4.43;;;21.50;50.00;;;;;;5113362;28;20658;-56
2021/05/07 12:13:37;;;;;;;26.08;4.38;;;21.50;50.10;;;;;;5113212;28;20073;-57
2021/05/07 12:16:04;;;;;;;17.67;3.97;;;21.60;50.10;;;;;;5113730;28;20091;-58
2021/05/07 12:18:35;;;;;;;20.13;4.43;;;21.60;49.90;;;;;;5113364;28;20604;-62
2021/05/07 12:21:03;;;;;;;20.90;5.35;;;21.50;50.40;;;;;;5113267;28;20530;-57
2021/05/07 12:23:51;;;;;;;14.13;4.00;;;21.60;49.60;;;;;;5113455;28;20076;-55
2021/05/07 12:26:19;;;;;;;22.00;4.80;;;21.60;49.50;;;;;;5113706;28;20076;-59
2021/05/07 12:29:00;;;;;;;14.82;4.15;;;21.60;49.20;;;;;;5113311;28;20079;-58
2021/05/07 12:31:33;;;;;;;21.52;4.57;;;21.50;48.70;;;;;;5113339;28;20083;-58
2021/05/07 12:34:00;;;;;;;23.17;4.85;;;21.60;49.30;;;;;;5113160;28;20087;-58
2021/05/07 12:39:48;;;;;;;19.30;4.93;;;21.60;49.50;;;;;;5113189;28;20103;-59
2021/05/07 12:42:14;;;;;;;27.15;4.82;;;21.40;49.20;;;;;;5113009;28;20518;-57
2021/05/07 12:44:41;;;;;;;29.25;5.70;;;21.20;49.70;;;;;;5113167;28;20548;-57
2021/05/07 12:47:07;;;;;;;21.02;4.32;;;21.10;49.90;;;;;;5112856;28;20068;-56
2021/05/07 12:49:34;;;;;;;23.65;4.70;;;21.20;50.00;;;;;;5113061;28;20068;-58
2021/05/07 12:52:01;;;;;;;19.75;4.72;;;21.30;50.60;;;;;;5113121;28;20083;-56
2021/05/07 12:57:49;;;;;;;18.48;4.55;;;21.30;49.60;;;;;;5112957;28;20548;-59
2021/05/07 13:03:38;;;;;;;20.80;4.03;;;21.40;49.40;;;;;;5112963;28;20079;-58
2021/05/07 13:06:05;;;;;;;25.23;4.47;;;21.30;49.50;;;;;;5115385;28;20065;-58
2021/05/07 13:08:32;;;;;;;22.50;4.72;;;21.20;49.80;;;;;;5117463;28;20113;-58
2021/05/07 13:10:59;;;;;;;33.53;4.22;;;20.90;58.40;;;;;;5117707;28;20072;-59
2021/05/07 13:13:25;;;;;;;24.02;4.53;;;21.30;50.20;;;;;;5118280;28;20071;-59
2021/05/07 13:15:52;;;;;;;24.95;4.38;;;21.40;50.00;;;;;;5117428;28;20064;-60
2021/05/07 13:18:18;;;;;;;30.83;4.85;;;21.40;50.00;;;;;;5116586;28;20141;-59
2021/05/07 13:20:45;;;;;;;22.75;4.85;;;21.30;81.00;;;;;;5116462;28;20095;-56